Enoree, South Carolina
Current Conditions -  °F | °C
As of 3:35 PM on Monday 26 Jan 2015 (Local Time) from KLUX Reporting Station
Overcast Overcast  
Wind Chill: 54°   Ceiling: 5500
Heat Index: 54°   Visibility: 10mi
Dew Point: 37°   Wind: 12mph
Humidity: 54%   Direction: 280°W
Pressure: 29.65"   Gusts: 22mph
Location:  34.66°N, 81.96°W
Report Text: KLUX 262035Z AUTO 28010G19KT 10SM BKN055 OVC075 12/03 A2965 RMK AO2
Loading
Personal Weather Stations






























Interactive Weather Map New forecast layout! Learn more

10-Day Weather Forecast

Advertisements
Track Severe Weather on mobile